Página principal
METAR-TAF:

METAR-TAF

Aeroportos :

Aeroporto Internacional Norman Manley

Kingston, Jamaica

latitude: 17-56N, longitude: 076-47W, altura: 3 m

Observação actual do tempo

O boletim foi feito há 25 minutos, às 10:00 UTC
Vento 6 kt de nor-noroeste
Temperatura 22°C
Humidade 69%
Pressão 1014 hPa
Visibilidade 10 km ou mais
Poucas nuvensa uma altura de 2200 ft

METAR: MKJP 191000Z 33006KT 9999 FEW022 22/16 Q1014

Hora: 05:25 (10:25 UTC)

Previsão

O boletim foi feito há 11 horas e 10 minutos, às 23:15 UTC
Previsão válida de 19 às 00 UTC a 19 às 24 UTC
Vento 5 kt de norte
Visibilidade 10 km ou mais
Poucas nuvensa uma altura de 2200 ft
Nuvens dispersasa uma altura de 3200 ft
Tornando-se
de 19 às 14 UTC a 19 às 16 UTC
Vento 10 kt de su-sudeste

TAF: MKJP 182315Z 1900/1924 35005KT 9999 FEW022 SCT032 BECMG 1914/1916 15010KT

Observações e previsões do tempo de mais de 4000 aeroportos (mensagens METAR e TAF).

As estações disponíveis são os pontos amarelos e vermelhos sobre o mapa.

Mova o rato sobre o mapa para ver o nome da estação.

Depois clique no ponto para visualizar as observações e previsões meteorológicas.

Para alterar o mapa : clique nos botões verdes com uma cruz preta para aumentar o zoom; no botão verde com uma pitada de zoom; ou nas setas verdes para mapas adjacentes.


METAR-TAF: